sensor_id;sensor_type;location;lat;lon;timestamp;P1;durP1;ratioP1;P2;durP2;ratioP2
20294;SDS011;10306;52.128;5.208;2023-05-07T00:01:40;22.07;;;17.27;;
20294;SDS011;10306;52.128;5.208;2023-05-07T00:04:06;21.63;;;16.47;;
20294;SDS011;10306;52.128;5.208;2023-05-07T00:06:32;20.87;;;17.47;;
20294;SDS011;10306;52.128;5.208;2023-05-07T00:08:58;21.57;;;16.53;;
20294;SDS011;10306;52.128;5.208;2023-05-07T00:11:24;20.07;;;16.17;;
20294;SDS011;10306;52.128;5.208;2023-05-07T00:13:51;21.67;;;15.63;;
20294;SDS011;10306;52.128;5.208;2023-05-07T00:16:17;18.73;;;15.73;;
20294;SDS011;10306;52.128;5.208;2023-05-07T00:18:43;18.30;;;15.50;;
20294;SDS011;10306;52.128;5.208;2023-05-07T00:21:09;17.27;;;14.80;;
20294;SDS011;10306;52.128;5.208;2023-05-07T00:23:35;17.50;;;15.20;;
20294;SDS011;10306;52.128;5.208;2023-05-07T00:26:01;19.77;;;15.50;;
20294;SDS011;10306;52.128;5.208;2023-05-07T00:28:27;18.27;;;14.80;;
20294;SDS011;10306;52.128;5.208;2023-05-07T00:30:53;17.10;;;15.20;;
20294;SDS011;10306;52.128;5.208;2023-05-07T00:33:18;16.50;;;14.37;;
20294;SDS011;10306;52.128;5.208;2023-05-07T00:35:45;17.20;;;14.37;;
20294;SDS011;10306;52.128;5.208;2023-05-07T00:38:11;15.53;;;13.87;;
20294;SDS011;10306;52.128;5.208;2023-05-07T00:40:37;17.53;;;15.13;;
20294;SDS011;10306;52.128;5.208;2023-05-07T00:43:03;15.27;;;13.67;;
20294;SDS011;10306;52.128;5.208;2023-05-07T00:45:29;16.10;;;14.30;;
20294;SDS011;10306;52.128;5.208;2023-05-07T00:47:55;15.87;;;13.80;;
20294;SDS011;10306;52.128;5.208;2023-05-07T00:50:23;14.37;;;13.07;;
20294;SDS011;10306;52.128;5.208;2023-05-07T00:52:49;14.93;;;13.43;;
20294;SDS011;10306;52.128;5.208;2023-05-07T00:55:15;15.43;;;13.70;;
20294;SDS011;10306;52.128;5.208;2023-05-07T00:57:41;14.97;;;13.43;;
20294;SDS011;10306;52.128;5.208;2023-05-07T01:00:08;14.27;;;12.80;;
20294;SDS011;10306;52.128;5.208;2023-05-07T01:02:35;13.80;;;12.40;;
20294;SDS011;10306;52.128;5.208;2023-05-07T01:05:01;14.03;;;12.70;;
20294;SDS011;10306;52.128;5.208;2023-05-07T01:07:29;14.03;;;12.73;;
20294;SDS011;10306;52.128;5.208;2023-05-07T01:09:55;14.33;;;12.93;;
20294;SDS011;10306;52.128;5.208;2023-05-07T01:12:21;14.33;;;12.37;;
20294;SDS011;10306;52.128;5.208;2023-05-07T01:14:47;14.00;;;12.47;;
20294;SDS011;10306;52.128;5.208;2023-05-07T01:17:15;13.13;;;12.00;;
20294;SDS011;10306;52.128;5.208;2023-05-07T01:19:41;13.93;;;12.27;;
20294;SDS011;10306;52.128;5.208;2023-05-07T01:22:08;14.13;;;12.37;;
20294;SDS011;10306;52.128;5.208;2023-05-07T01:24:34;13.60;;;12.33;;
20294;SDS011;10306;52.128;5.208;2023-05-07T01:27:00;14.20;;;12.70;;
20294;SDS011;10306;52.128;5.208;2023-05-07T01:29:27;12.57;;;11.37;;
20294;SDS011;10306;52.128;5.208;2023-05-07T01:31:53;12.57;;;11.27;;
20294;SDS011;10306;52.128;5.208;2023-05-07T01:34:20;12.60;;;11.40;;
20294;SDS011;10306;52.128;5.208;2023-05-07T01:36:46;12.63;;;11.53;;
20294;SDS011;10306;52.128;5.208;2023-05-07T01:39:14;13.07;;;11.33;;
20294;SDS011;10306;52.128;5.208;2023-05-07T01:41:40;12.77;;;11.47;;
20294;SDS011;10306;52.128;5.208;2023-05-07T01:44:06;12.23;;;11.03;;
20294;SDS011;10306;52.128;5.208;2023-05-07T01:46:33;12.90;;;11.60;;
20294;SDS011;10306;52.128;5.208;2023-05-07T01:48:59;16.07;;;10.70;;
20294;SDS011;10306;52.128;5.208;2023-05-07T01:51:25;15.13;;;13.20;;
20294;SDS011;10306;52.128;5.208;2023-05-07T01:53:52;13.27;;;11.87;;
20294;SDS011;10306;52.128;5.208;2023-05-07T01:56:18;13.67;;;12.13;;
20294;SDS011;10306;52.128;5.208;2023-05-07T01:58:45;13.00;;;11.70;;
20294;SDS011;10306;52.128;5.208;2023-05-07T02:01:12;12.53;;;11.33;;
20294;SDS011;10306;52.128;5.208;2023-05-07T02:03:38;13.40;;;12.10;;
20294;SDS011;10306;52.128;5.208;2023-05-07T02:06:04;13.73;;;12.13;;
20294;SDS011;10306;52.128;5.208;2023-05-07T02:08:30;14.40;;;12.70;;
20294;SDS011;10306;52.128;5.208;2023-05-07T02:10:56;14.47;;;11.77;;
20294;SDS011;10306;52.128;5.208;2023-05-07T02:13:22;13.37;;;12.00;;
20294;SDS011;10306;52.128;5.208;2023-05-07T02:15:49;15.63;;;11.83;;
20294;SDS011;10306;52.128;5.208;2023-05-07T02:18:15;12.47;;;11.20;;
20294;SDS011;10306;52.128;5.208;2023-05-07T02:20:42;12.47;;;11.27;;
20294;SDS011;10306;52.128;5.208;2023-05-07T02:23:08;12.30;;;11.23;;
20294;SDS011;10306;52.128;5.208;2023-05-07T02:25:34;12.13;;;10.83;;
20294;SDS011;10306;52.128;5.208;2023-05-07T02:28:00;11.67;;;10.60;;
20294;SDS011;10306;52.128;5.208;2023-05-07T02:30:26;13.80;;;11.27;;
20294;SDS011;10306;52.128;5.208;2023-05-07T02:32:52;12.37;;;11.27;;
20294;SDS011;10306;52.128;5.208;2023-05-07T02:35:18;12.13;;;11.03;;
20294;SDS011;10306;52.128;5.208;2023-05-07T02:37:44;12.53;;;11.43;;
20294;SDS011;10306;52.128;5.208;2023-05-07T02:40:10;12.17;;;10.87;;
20294;SDS011;10306;52.128;5.208;2023-05-07T02:42:36;12.20;;;11.10;;
20294;SDS011;10306;52.128;5.208;2023-05-07T02:45:02;12.43;;;11.13;;
20294;SDS011;10306;52.128;5.208;2023-05-07T02:47:28;12.80;;;11.70;;
20294;SDS011;10306;52.128;5.208;2023-05-07T02:49:54;12.63;;;11.33;;
20294;SDS011;10306;52.128;5.208;2023-05-07T02:52:21;12.27;;;11.17;;
20294;SDS011;10306;52.128;5.208;2023-05-07T02:54:47;12.37;;;11.20;;
20294;SDS011;10306;52.128;5.208;2023-05-07T02:57:13;12.13;;;11.03;;
20294;SDS011;10306;52.128;5.208;2023-05-07T02:59:39;12.00;;;10.80;;
20294;SDS011;10306;52.128;5.208;2023-05-07T03:02:05;13.53;;;12.23;;
20294;SDS011;10306;52.128;5.208;2023-05-07T03:04:31;12.47;;;11.27;;
20294;SDS011;10306;52.128;5.208;2023-05-07T03:06:57;13.13;;;11.87;;
20294;SDS011;10306;52.128;5.208;2023-05-07T03:09:23;12.80;;;11.60;;
20294;SDS011;10306;52.128;5.208;2023-05-07T03:11:49;13.03;;;11.70;;
20294;SDS011;10306;52.128;5.208;2023-05-07T03:14:15;12.30;;;11.17;;
20294;SDS011;10306;52.128;5.208;2023-05-07T03:16:41;13.83;;;11.90;;
20294;SDS011;10306;52.128;5.208;2023-05-07T03:19:07;12.73;;;11.47;;
20294;SDS011;10306;52.128;5.208;2023-05-07T03:21:33;13.50;;;12.20;;
20294;SDS011;10306;52.128;5.208;2023-05-07T03:23:59;12.93;;;11.67;;
20294;SDS011;10306;52.128;5.208;2023-05-07T03:26:25;13.80;;;12.20;;
20294;SDS011;10306;52.128;5.208;2023-05-07T03:28:51;14.63;;;12.73;;
20294;SDS011;10306;52.128;5.208;2023-05-07T03:31:17;14.13;;;12.73;;
20294;SDS011;10306;52.128;5.208;2023-05-07T03:33:56;14.10;;;12.53;;
20294;SDS011;10306;52.128;5.208;2023-05-07T03:36:22;15.77;;;11.53;;
20294;SDS011;10306;52.128;5.208;2023-05-07T03:38:49;13.30;;;11.90;;
20294;SDS011;10306;52.128;5.208;2023-05-07T03:41:15;13.77;;;12.47;;
20294;SDS011;10306;52.128;5.208;2023-05-07T03:43:41;13.03;;;11.90;;
20294;SDS011;10306;52.128;5.208;2023-05-07T03:46:07;14.57;;;13.13;;
20294;SDS011;10306;52.128;5.208;2023-05-07T03:48:33;14.27;;;12.70;;
20294;SDS011;10306;52.128;5.208;2023-05-07T03:50:59;14.17;;;12.87;;
20294;SDS011;10306;52.128;5.208;2023-05-07T03:53:25;14.00;;;12.50;;
20294;SDS011;10306;52.128;5.208;2023-05-07T03:55:51;14.20;;;12.77;;
20294;SDS011;10306;52.128;5.208;2023-05-07T03:58:17;14.10;;;12.70;;
20294;SDS011;10306;52.128;5.208;2023-05-07T04:00:42;16.53;;;13.07;;
20294;SDS011;10306;52.128;5.208;2023-05-07T04:03:08;14.93;;;13.60;;
20294;SDS011;10306;52.128;5.208;2023-05-07T04:05:34;15.30;;;13.67;;
20294;SDS011;10306;52.128;5.208;2023-05-07T04:08:00;15.33;;;13.73;;
20294;SDS011;10306;52.128;5.208;2023-05-07T04:10:27;15.97;;;14.27;;
20294;SDS011;10306;52.128;5.208;2023-05-07T04:12:53;18.13;;;16.33;;
20294;SDS011;10306;52.128;5.208;2023-05-07T04:15:19;18.07;;;16.13;;
20294;SDS011;10306;52.128;5.208;2023-05-07T04:17:45;19.20;;;16.03;;
20294;SDS011;10306;52.128;5.208;2023-05-07T04:20:14;20.60;;;16.77;;
20294;SDS011;10306;52.128;5.208;2023-05-07T04:22:41;24.20;;;17.67;;
20294;SDS011;10306;52.128;5.208;2023-05-07T04:25:07;19.13;;;16.70;;
20294;SDS011;10306;52.128;5.208;2023-05-07T04:27:34;21.10;;;16.73;;
20294;SDS011;10306;52.128;5.208;2023-05-07T04:30:00;22.47;;;18.20;;
20294;SDS011;10306;52.128;5.208;2023-05-07T04:32:26;21.07;;;18.77;;
20294;SDS011;10306;52.128;5.208;2023-05-07T04:34:54;20.80;;;17.27;;
20294;SDS011;10306;52.128;5.208;2023-05-07T04:37:20;21.87;;;18.13;;
20294;SDS011;10306;52.128;5.208;2023-05-07T04:39:46;20.60;;;17.43;;
20294;SDS011;10306;52.128;5.208;2023-05-07T04:42:15;20.27;;;17.93;;
20294;SDS011;10306;52.128;5.208;2023-05-07T04:44:42;20.17;;;17.50;;
20294;SDS011;10306;52.128;5.208;2023-05-07T04:47:07;18.43;;;16.53;;
20294;SDS011;10306;52.128;5.208;2023-05-07T04:49:33;21.37;;;18.23;;
20294;SDS011;10306;52.128;5.208;2023-05-07T04:51:59;19.73;;;17.30;;
20294;SDS011;10306;52.128;5.208;2023-05-07T04:54:26;24.07;;;19.57;;
20294;SDS011;10306;52.128;5.208;2023-05-07T04:56:52;21.43;;;17.33;;
20294;SDS011;10306;52.128;5.208;2023-05-07T04:59:18;21.37;;;18.63;;
20294;SDS011;10306;52.128;5.208;2023-05-07T05:01:43;20.37;;;17.83;;
20294;SDS011;10306;52.128;5.208;2023-05-07T05:04:09;19.80;;;16.97;;
20294;SDS011;10306;52.128;5.208;2023-05-07T05:06:35;20.03;;;17.63;;
20294;SDS011;10306;52.128;5.208;2023-05-07T05:09:01;23.10;;;17.40;;
20294;SDS011;10306;52.128;5.208;2023-05-07T05:11:29;19.20;;;16.87;;
20294;SDS011;10306;52.128;5.208;2023-05-07T05:13:55;20.47;;;16.67;;
20294;SDS011;10306;52.128;5.208;2023-05-07T05:16:21;19.80;;;17.57;;
20294;SDS011;10306;52.128;5.208;2023-05-07T05:18:47;23.10;;;17.73;;
20294;SDS011;10306;52.128;5.208;2023-05-07T05:21:13;18.63;;;16.73;;
20294;SDS011;10306;52.128;5.208;2023-05-07T05:23:39;18.07;;;15.97;;
20294;SDS011;10306;52.128;5.208;2023-05-07T05:26:05;18.00;;;16.07;;
20294;SDS011;10306;52.128;5.208;2023-05-07T05:28:31;20.87;;;16.40;;
20294;SDS011;10306;52.128;5.208;2023-05-07T05:30:57;23.10;;;16.33;;
20294;SDS011;10306;52.128;5.208;2023-05-07T05:33:23;18.10;;;16.20;;
20294;SDS011;10306;52.128;5.208;2023-05-07T05:35:49;17.53;;;15.73;;
20294;SDS011;10306;52.128;5.208;2023-05-07T05:38:15;18.17;;;16.27;;
20294;SDS011;10306;52.128;5.208;2023-05-07T05:40:41;18.90;;;16.97;;
20294;SDS011;10306;52.128;5.208;2023-05-07T05:43:07;19.90;;;15.57;;
20294;SDS011;10306;52.128;5.208;2023-05-07T05:45:33;17.17;;;15.37;;
20294;SDS011;10306;52.128;5.208;2023-05-07T05:48:00;17.77;;;16.00;;
20294;SDS011;10306;52.128;5.208;2023-05-07T05:50:26;17.73;;;15.80;;
20294;SDS011;10306;52.128;5.208;2023-05-07T05:52:52;17.50;;;15.53;;
20294;SDS011;10306;52.128;5.208;2023-05-07T05:55:18;20.90;;;15.77;;
20294;SDS011;10306;52.128;5.208;2023-05-07T05:57:44;17.80;;;15.90;;
20294;SDS011;10306;52.128;5.208;2023-05-07T06:00:10;17.70;;;15.63;;
20294;SDS011;10306;52.128;5.208;2023-05-07T06:02:36;19.10;;;16.10;;
20294;SDS011;10306;52.128;5.208;2023-05-07T06:05:02;21.17;;;15.23;;
20294;SDS011;10306;52.128;5.208;2023-05-07T06:07:28;17.90;;;15.23;;
20294;SDS011;10306;52.128;5.208;2023-05-07T06:09:54;20.10;;;16.40;;
20294;SDS011;10306;52.128;5.208;2023-05-07T06:12:20;20.73;;;16.33;;
20294;SDS011;10306;52.128;5.208;2023-05-07T06:14:46;19.83;;;15.10;;
20294;SDS011;10306;52.128;5.208;2023-05-07T06:17:12;18.57;;;15.83;;
20294;SDS011;10306;52.128;5.208;2023-05-07T06:19:38;17.90;;;15.87;;
20294;SDS011;10306;52.128;5.208;2023-05-07T06:22:04;18.73;;;15.20;;
20294;SDS011;10306;52.128;5.208;2023-05-07T06:24:30;17.13;;;15.33;;
20294;SDS011;10306;52.128;5.208;2023-05-07T06:26:56;18.50;;;15.50;;
20294;SDS011;10306;52.128;5.208;2023-05-07T06:29:23;18.83;;;15.93;;
20294;SDS011;10306;52.128;5.208;2023-05-07T06:31:51;16.70;;;14.93;;
20294;SDS011;10306;52.128;5.208;2023-05-07T06:34:16;19.50;;;15.00;;
20294;SDS011;10306;52.128;5.208;2023-05-07T06:36:42;17.63;;;15.23;;
20294;SDS011;10306;52.128;5.208;2023-05-07T06:39:08;18.67;;;14.70;;
20294;SDS011;10306;52.128;5.208;2023-05-07T06:41:34;15.97;;;14.27;;
20294;SDS011;10306;52.128;5.208;2023-05-07T06:44:01;17.60;;;15.40;;
20294;SDS011;10306;52.128;5.208;2023-05-07T06:46:27;17.70;;;15.43;;
20294;SDS011;10306;52.128;5.208;2023-05-07T06:48:53;16.47;;;14.77;;
20294;SDS011;10306;52.128;5.208;2023-05-07T06:51:19;18.63;;;16.57;;
20294;SDS011;10306;52.128;5.208;2023-05-07T06:53:45;16.47;;;14.67;;
20294;SDS011;10306;52.128;5.208;2023-05-07T06:56:11;16.67;;;14.80;;
20294;SDS011;10306;52.128;5.208;2023-05-07T06:58:37;18.97;;;15.30;;
20294;SDS011;10306;52.128;5.208;2023-05-07T07:01:03;16.87;;;15.07;;
20294;SDS011;10306;52.128;5.208;2023-05-07T07:03:29;16.37;;;14.37;;
20294;SDS011;10306;52.128;5.208;2023-05-07T07:05:55;15.43;;;13.93;;
20294;SDS011;10306;52.128;5.208;2023-05-07T07:08:22;15.73;;;14.13;;
20294;SDS011;10306;52.128;5.208;2023-05-07T07:10:48;16.23;;;14.53;;
20294;SDS011;10306;52.128;5.208;2023-05-07T07:13:14;17.43;;;14.60;;
20294;SDS011;10306;52.128;5.208;2023-05-07T07:15:40;16.57;;;14.83;;
20294;SDS011;10306;52.128;5.208;2023-05-07T07:18:06;15.73;;;14.10;;
20294;SDS011;10306;52.128;5.208;2023-05-07T07:20:32;17.37;;;14.77;;
20294;SDS011;10306;52.128;5.208;2023-05-07T07:22:58;17.33;;;15.37;;
20294;SDS011;10306;52.128;5.208;2023-05-07T07:25:24;19.10;;;14.47;;
20294;SDS011;10306;52.128;5.208;2023-05-07T07:27:50;16.13;;;14.33;;
20294;SDS011;10306;52.128;5.208;2023-05-07T07:30:16;18.03;;;14.40;;
20294;SDS011;10306;52.128;5.208;2023-05-07T07:32:42;16.77;;;15.03;;
20294;SDS011;10306;52.128;5.208;2023-05-07T07:35:08;20.20;;;15.63;;
20294;SDS011;10306;52.128;5.208;2023-05-07T07:37:34;15.33;;;13.57;;
20294;SDS011;10306;52.128;5.208;2023-05-07T07:40:00;15.67;;;13.50;;
20294;SDS011;10306;52.128;5.208;2023-05-07T07:42:26;15.40;;;13.43;;
20294;SDS011;10306;52.128;5.208;2023-05-07T07:44:54;15.63;;;14.03;;
20294;SDS011;10306;52.128;5.208;2023-05-07T07:47:20;16.03;;;14.03;;
20294;SDS011;10306;52.128;5.208;2023-05-07T07:49:46;16.20;;;14.27;;
20294;SDS011;10306;52.128;5.208;2023-05-07T07:52:11;15.63;;;13.93;;
20294;SDS011;10306;52.128;5.208;2023-05-07T07:54:37;14.57;;;13.17;;
20294;SDS011;10306;52.128;5.208;2023-05-07T07:57:03;14.87;;;13.47;;
20294;SDS011;10306;52.128;5.208;2023-05-07T07:59:29;14.70;;;13.30;;
20294;SDS011;10306;52.128;5.208;2023-05-07T08:01:55;14.73;;;13.33;;
20294;SDS011;10306;52.128;5.208;2023-05-07T08:04:22;14.40;;;13.00;;
20294;SDS011;10306;52.128;5.208;2023-05-07T08:06:48;14.77;;;13.10;;
20294;SDS011;10306;52.128;5.208;2023-05-07T08:09:14;14.47;;;13.07;;
20294;SDS011;10306;52.128;5.208;2023-05-07T08:11:40;15.27;;;13.47;;
20294;SDS011;10306;52.128;5.208;2023-05-07T08:14:06;14.80;;;13.13;;
20294;SDS011;10306;52.128;5.208;2023-05-07T08:16:32;15.70;;;13.73;;
20294;SDS011;10306;52.128;5.208;2023-05-07T08:18:58;15.60;;;13.87;;
20294;SDS011;10306;52.128;5.208;2023-05-07T08:21:24;15.47;;;13.87;;
20294;SDS011;10306;52.128;5.208;2023-05-07T08:23:51;14.93;;;13.43;;
20294;SDS011;10306;52.128;5.208;2023-05-07T08:26:17;15.93;;;14.33;;
20294;SDS011;10306;52.128;5.208;2023-05-07T08:28:42;15.33;;;13.70;;
20294;SDS011;10306;52.128;5.208;2023-05-07T08:31:09;16.00;;;14.43;;
20294;SDS011;10306;52.128;5.208;2023-05-07T08:33:34;17.47;;;13.90;;
20294;SDS011;10306;52.128;5.208;2023-05-07T08:36:00;16.10;;;13.35;;
20294;SDS011;10306;52.128;5.208;2023-05-07T08:38:26;16.00;;;14.40;;
20294;SDS011;10306;52.128;5.208;2023-05-07T08:40:52;15.60;;;14.00;;
20294;SDS011;10306;52.128;5.208;2023-05-07T08:43:18;16.60;;;14.80;;
20294;SDS011;10306;52.128;5.208;2023-05-07T08:45:45;15.97;;;14.17;;
20294;SDS011;10306;52.128;5.208;2023-05-07T08:48:15;15.20;;;13.70;;
20294;SDS011;10306;52.128;5.208;2023-05-07T08:50:41;15.33;;;13.83;;
20294;SDS011;10306;52.128;5.208;2023-05-07T08:53:07;14.60;;;13.20;;
20294;SDS011;10306;52.128;5.208;2023-05-07T08:55:33;15.03;;;13.60;;
20294;SDS011;10306;52.128;5.208;2023-05-07T08:57:59;14.53;;;12.97;;
20294;SDS011;10306;52.128;5.208;2023-05-07T09:00:26;14.20;;;12.80;;
20294;SDS011;10306;52.128;5.208;2023-05-07T09:02:52;14.77;;;13.37;;
20294;SDS011;10306;52.128;5.208;2023-05-07T09:05:18;13.93;;;12.53;;
20294;SDS011;10306;52.128;5.208;2023-05-07T09:07:44;14.37;;;12.97;;
20294;SDS011;10306;52.128;5.208;2023-05-07T09:10:11;13.87;;;12.57;;
20294;SDS011;10306;52.128;5.208;2023-05-07T09:12:37;15.87;;;13.37;;
20294;SDS011;10306;52.128;5.208;2023-05-07T09:15:04;14.03;;;12.57;;
20294;SDS011;10306;52.128;5.208;2023-05-07T09:17:30;14.17;;;12.77;;
20294;SDS011;10306;52.128;5.208;2023-05-07T09:19:56;13.67;;;12.47;;
20294;SDS011;10306;52.128;5.208;2023-05-07T09:22:28;13.03;;;11.60;;
20294;SDS011;10306;52.128;5.208;2023-05-07T09:24:56;12.43;;;11.23;;
20294;SDS011;10306;52.128;5.208;2023-05-07T09:27:22;11.77;;;10.77;;
20294;SDS011;10306;52.128;5.208;2023-05-07T09:29:48;11.77;;;10.67;;
20294;SDS011;10306;52.128;5.208;2023-05-07T09:32:14;13.25;;;11.20;;
20294;SDS011;10306;52.128;5.208;2023-05-07T09:34:41;12.48;;;11.38;;
20294;SDS011;10306;52.128;5.208;2023-05-07T09:37:07;12.57;;;11.48;;
20294;SDS011;10306;52.128;5.208;2023-05-07T09:39:43;12.17;;;10.97;;
20294;SDS011;10306;52.128;5.208;2023-05-07T09:42:09;11.77;;;10.37;;
20294;SDS011;10306;52.128;5.208;2023-05-07T09:44:36;12.77;;;11.67;;
20294;SDS011;10306;52.128;5.208;2023-05-07T09:47:04;13.17;;;11.90;;
20294;SDS011;10306;52.128;5.208;2023-05-07T09:49:30;14.17;;;12.77;;
20294;SDS011;10306;52.128;5.208;2023-05-07T09:51:58;13.77;;;12.33;;
20294;SDS011;10306;52.128;5.208;2023-05-07T09:54:25;13.33;;;12.13;;
20294;SDS011;10306;52.128;5.208;2023-05-07T09:56:53;14.68;;;13.00;;
20294;SDS011;10306;52.128;5.208;2023-05-07T09:59:20;13.48;;;12.18;;
20294;SDS011;10306;52.128;5.208;2023-05-07T10:01:47;13.35;;;12.20;;
20294;SDS011;10306;52.128;5.208;2023-05-07T10:04:14;11.50;;;10.50;;
20294;SDS011;10306;52.128;5.208;2023-05-07T10:06:40;10.35;;;9.35;;
20294;SDS011;10306;52.128;5.208;2023-05-07T10:09:06;10.25;;;9.38;;
20294;SDS011;10306;52.128;5.208;2023-05-07T10:11:36;8.05;;;7.25;;
20294;SDS011;10306;52.128;5.208;2023-05-07T10:14:02;5.97;;;5.50;;
20294;SDS011;10306;52.128;5.208;2023-05-07T10:16:30;5.70;;;4.88;;
20294;SDS011;10306;52.128;5.208;2023-05-07T10:18:58;5.55;;;5.05;;
20294;SDS011;10306;52.128;5.208;2023-05-07T10:21:24;5.97;;;5.53;;
20294;SDS011;10306;52.128;5.208;2023-05-07T10:23:57;5.97;;;5.47;;
20294;SDS011;10306;52.128;5.208;2023-05-07T10:26:24;6.90;;;6.40;;
20294;SDS011;10306;52.128;5.208;2023-05-07T10:28:57;7.72;;;7.03;;
20294;SDS011;10306;52.128;5.208;2023-05-07T10:31:47;6.57;;;6.10;;
20294;SDS011;10306;52.128;5.208;2023-05-07T10:34:17;3.70;;;3.50;;
20294;SDS011;10306;52.128;5.208;2023-05-07T10:36:45;4.60;;;4.22;;
20294;SDS011;10306;52.128;5.208;2023-05-07T10:39:11;4.25;;;4.00;;
20294;SDS011;10306;52.128;5.208;2023-05-07T10:41:37;4.95;;;4.55;;
20294;SDS011;10306;52.128;5.208;2023-05-07T10:44:03;4.75;;;4.43;;
20294;SDS011;10306;52.128;5.208;2023-05-07T10:46:29;4.80;;;4.40;;
20294;SDS011;10306;52.128;5.208;2023-05-07T10:51:27;4.18;;;3.97;;
20294;SDS011;10306;52.128;5.208;2023-05-07T10:54:39;5.13;;;4.72;;
20294;SDS011;10306;52.128;5.208;2023-05-07T10:56:41;5.43;;;5.03;;
20294;SDS011;10306;52.128;5.208;2023-05-07T11:04:18;4.28;;;3.92;;
20294;SDS011;10306;52.128;5.208;2023-05-07T11:15:12;6.88;;;6.20;;
20294;SDS011;10306;52.128;5.208;2023-05-07T11:17:56;6.22;;;5.28;;
20294;SDS011;10306;52.128;5.208;2023-05-07T11:23:08;5.28;;;4.88;;
20294;SDS011;10306;52.128;5.208;2023-05-07T11:25:34;5.05;;;4.47;;
20294;SDS011;10306;52.128;5.208;2023-05-07T11:28:07;5.95;;;5.43;;
20294;SDS011;10306;52.128;5.208;2023-05-07T11:30:35;5.57;;;5.18;;
20294;SDS011;10306;52.128;5.208;2023-05-07T11:33:01;5.30;;;5.00;;
20294;SDS011;10306;52.128;5.208;2023-05-07T11:35:27;6.88;;;6.28;;
20294;SDS011;10306;52.128;5.208;2023-05-07T11:37:57;5.60;;;5.20;;
20294;SDS011;10306;52.128;5.208;2023-05-07T11:40:23;4.80;;;4.40;;
20294;SDS011;10306;52.128;5.208;2023-05-07T11:42:49;4.95;;;4.65;;
20294;SDS011;10306;52.128;5.208;2023-05-07T11:45:22;5.70;;;5.38;;
20294;SDS011;10306;52.128;5.208;2023-05-07T11:47:49;5.88;;;5.40;;
20294;SDS011;10306;52.128;5.208;2023-05-07T11:50:15;5.82;;;5.20;;
20294;SDS011;10306;52.128;5.208;2023-05-07T11:52:49;6.20;;;5.70;;
20294;SDS011;10306;52.128;5.208;2023-05-07T11:55:17;6.18;;;5.72;;
20294;SDS011;10306;52.128;5.208;2023-05-07T11:57:44;6.53;;;6.03;;
20294;SDS011;10306;52.128;5.208;2023-05-07T12:00:10;7.13;;;6.53;;
20294;SDS011;10306;52.128;5.208;2023-05-07T12:02:36;7.93;;;7.22;;
20294;SDS011;10306;52.128;5.208;2023-05-07T12:05:02;7.25;;;6.63;;
20294;SDS011;10306;52.128;5.208;2023-05-07T12:07:28;7.07;;;6.47;;
20294;SDS011;10306;52.128;5.208;2023-05-07T12:09:54;7.45;;;6.90;;
20294;SDS011;10306;52.128;5.208;2023-05-07T12:12:20;8.15;;;7.30;;
20294;SDS011;10306;52.128;5.208;2023-05-07T12:14:48;7.70;;;7.00;;
20294;SDS011;10306;52.128;5.208;2023-05-07T12:17:14;7.20;;;6.50;;
20294;SDS011;10306;52.128;5.208;2023-05-07T12:19:41;8.18;;;7.47;;
20294;SDS011;10306;52.128;5.208;2023-05-07T12:22:07;5.05;;;4.75;;
20294;SDS011;10306;52.128;5.208;2023-05-07T12:27:09;6.43;;;5.97;;
20294;SDS011;10306;52.128;5.208;2023-05-07T12:29:35;6.47;;;6.00;;
20294;SDS011;10306;52.128;5.208;2023-05-07T12:32:03;6.35;;;5.93;;
20294;SDS011;10306;52.128;5.208;2023-05-07T12:34:30;7.65;;;7.05;;
20294;SDS011;10306;52.128;5.208;2023-05-07T12:36:56;7.72;;;7.15;;
20294;SDS011;10306;52.128;5.208;2023-05-07T12:39:22;7.53;;;6.55;;
20294;SDS011;10306;52.128;5.208;2023-05-07T12:41:52;7.70;;;7.13;;
20294;SDS011;10306;52.128;5.208;2023-05-07T12:44:18;8.45;;;7.70;;
20294;SDS011;10306;52.128;5.208;2023-05-07T12:46:46;9.25;;;8.35;;
20294;SDS011;10306;52.128;5.208;2023-05-07T12:49:12;9.05;;;8.38;;
20294;SDS011;10306;52.128;5.208;2023-05-07T12:51:38;8.23;;;7.63;;
20294;SDS011;10306;52.128;5.208;2023-05-07T12:54:04;7.93;;;7.43;;
20294;SDS011;10306;52.128;5.208;2023-05-07T12:56:30;8.27;;;7.63;;
20294;SDS011;10306;52.128;5.208;2023-05-07T12:58:57;7.68;;;6.97;;
20294;SDS011;10306;52.128;5.208;2023-05-07T13:01:28;8.38;;;7.78;;
20294;SDS011;10306;52.128;5.208;2023-05-07T13:03:54;8.27;;;7.78;;
20294;SDS011;10306;52.128;5.208;2023-05-07T13:06:20;7.85;;;6.90;;
20294;SDS011;10306;52.128;5.208;2023-05-07T13:08:46;8.25;;;7.53;;
20294;SDS011;10306;52.128;5.208;2023-05-07T13:11:12;8.38;;;7.68;;
20294;SDS011;10306;52.128;5.208;2023-05-07T13:13:39;8.10;;;7.35;;
20294;SDS011;10306;52.128;5.208;2023-05-07T13:16:06;8.02;;;7.40;;
20294;SDS011;10306;52.128;5.208;2023-05-07T13:18:32;8.20;;;7.57;;
20294;SDS011;10306;52.128;5.208;2023-05-07T13:20:59;7.78;;;7.30;;
20294;SDS011;10306;52.128;5.208;2023-05-07T13:23:25;9.07;;;8.43;;
20294;SDS011;10306;52.128;5.208;2023-05-07T13:25:51;10.23;;;9.30;;
20294;SDS011;10306;52.128;5.208;2023-05-07T13:28:18;10.35;;;9.35;;
20294;SDS011;10306;52.128;5.208;2023-05-07T13:30:45;10.63;;;9.77;;
20294;SDS011;10306;52.128;5.208;2023-05-07T13:33:11;11.30;;;10.40;;
20294;SDS011;10306;52.128;5.208;2023-05-07T13:35:37;10.40;;;9.32;;
20294;SDS011;10306;52.128;5.208;2023-05-07T13:38:03;10.27;;;9.57;;
20294;SDS011;10306;52.128;5.208;2023-05-07T13:40:30;9.32;;;8.35;;
20294;SDS011;10306;52.128;5.208;2023-05-07T13:42:59;9.35;;;8.65;;
20294;SDS011;10306;52.128;5.208;2023-05-07T13:45:29;7.60;;;7.07;;
20294;SDS011;10306;52.128;5.208;2023-05-07T13:47:55;7.63;;;7.07;;
20294;SDS011;10306;52.128;5.208;2023-05-07T13:50:21;7.47;;;6.82;;
20294;SDS011;10306;52.128;5.208;2023-05-07T13:52:47;7.43;;;6.82;;
20294;SDS011;10306;52.128;5.208;2023-05-07T13:55:16;7.28;;;6.78;;
20294;SDS011;10306;52.128;5.208;2023-05-07T13:57:43;7.32;;;6.60;;
20294;SDS011;10306;52.128;5.208;2023-05-07T14:00:09;6.72;;;6.22;;
20294;SDS011;10306;52.128;5.208;2023-05-07T14:02:35;6.60;;;6.18;;
20294;SDS011;10306;52.128;5.208;2023-05-07T14:05:01;7.05;;;6.28;;
20294;SDS011;10306;52.128;5.208;2023-05-07T14:07:27;3.88;;;3.55;;
20294;SDS011;10306;52.128;5.208;2023-05-07T14:09:53;6.38;;;3.25;;
20294;SDS011;10306;52.128;5.208;2023-05-07T14:12:19;2.90;;;2.72;;
20294;SDS011;10306;52.128;5.208;2023-05-07T14:14:45;3.65;;;2.45;;
20294;SDS011;10306;52.128;5.208;2023-05-07T14:17:11;2.53;;;2.33;;
20294;SDS011;10306;52.128;5.208;2023-05-07T14:19:37;2.92;;;2.30;;
20294;SDS011;10306;52.128;5.208;2023-05-07T14:22:03;2.63;;;2.28;;
20294;SDS011;10306;52.128;5.208;2023-05-07T14:24:29;2.65;;;1.88;;
20294;SDS011;10306;52.128;5.208;2023-05-07T14:26:55;3.30;;;2.40;;
20294;SDS011;10306;52.128;5.208;2023-05-07T14:29:21;2.60;;;1.77;;
20294;SDS011;10306;52.128;5.208;2023-05-07T14:31:47;1.80;;;1.70;;
20294;SDS011;10306;52.128;5.208;2023-05-07T14:34:13;2.83;;;2.03;;
20294;SDS011;10306;52.128;5.208;2023-05-07T14:36:39;2.00;;;1.80;;
20294;SDS011;10306;52.128;5.208;2023-05-07T14:39:05;1.90;;;1.80;;
20294;SDS011;10306;52.128;5.208;2023-05-07T14:41:31;4.60;;;1.98;;
20294;SDS011;10306;52.128;5.208;2023-05-07T14:43:58;2.10;;;2.00;;
20294;SDS011;10306;52.128;5.208;2023-05-07T14:46:24;4.20;;;4.00;;